This is the latest recevied weather packets stored in our database for station/object EA7HQL-10. If no packets are shown the sender has not sent any weather packets the latest 1 day(s).
| Time | Temp. | Humidity | Pressure | Rain* | Wind** | Luminosity | Snow |
|---|---|---|---|---|---|---|---|
| 1778032335 | 18.33° C | 52% | 1008.6 hPa | 0 mm | - | - | - |
| 1778032090 | 18.89° C | 52% | 1008.7 hPa | 0 mm | - | - | - |
| 1778031795 | 18.33° C | 52% | 1008.7 hPa | 0 mm | - | - | - |
| 1778031525 | 18.89° C | 52% | 1008.7 hPa | 0 mm | - | - | - |
| 1778030960 | 18.89° C | 51% | 1008.8 hPa | 0 mm | - | - | - |
| 1778030680 | 18.89° C | 51% | 1008.8 hPa | 0 mm | - | - | - |
| 1778030400 | 18.89° C | 51% | 1008.9 hPa | 0 mm | - | - | - |
| 1778030130 | 18.89° C | 50% | 1009 hPa | 0 mm | - | - | - |
| 1778029852 | 18.89° C | 50% | 1009 hPa | 0 mm | - | - | - |
| 1778029567 | 18.89° C | 50% | 1009.1 hPa | 0 mm | - | - | - |
| 1778029300 | 18.89° C | 50% | 1009.1 hPa | 0 mm | - | - | - |
| 1778029129 | 18.89° C | 49% | 1009 hPa | 0 mm | - | - | - |
| 1778028839 | 18.89° C | 49% | 1009.1 hPa | 0 mm | - | - | - |
| 1778028254 | 18.89° C | 49% | 1009.3 hPa | 0 mm | - | - | - |
| 1778027974 | 18.89° C | 49% | 1009.4 hPa | 0 mm | - | - | - |
| 1778027694 | 18.89° C | 48% | 1009.2 hPa | 0 mm | - | - | - |
| 1778027434 | 18.89° C | 48% | 1009.5 hPa | 0 mm | - | - | - |
| 1778027149 | 18.89° C | 49% | 1009.3 hPa | 0 mm | - | - | - |
| 1778018412 | 21.11° C | 40% | 1009.7 hPa | 0 mm | - | - | - |
| 1778017275 | 21.11° C | 39% | 1009.8 hPa | 0 mm | - | - | - |
| 1778008997 | 22.22° C | 33% | 1009.8 hPa | 0 mm | - | - | - |
| 1778008725 | 22.22° C | 33% | 1009.5 hPa | 0 mm | - | - | - |
| 1777996524 | 22.78° C | 51% | 1009 hPa | 0 mm | - | - | - |
* Rain latest hour (hover to see other rain measurements)
** Current wind speed in m/s (hover to see current wind gust speed)